Time;durP1;ratioP1;P1;durP2;ratioP2;P2;SDS_P1;SDS_P2;PMS_P1;PMS_P2;Temp;Humidity;BMP_temperature;BMP_pressure;BME280_temperature;BME280_humidity;BME280_pressure;Samples;Min_cycle;Max_cycle;Signal;HPM_P1;HPM_P2
2022/01/09 00:02:24;;;;;;;34.85;19.75;;;;;;;;;;785637;177;918514;-63
2022/01/09 00:04:50;;;;;;;37.77;19.10;;;;;;;;;;782436;177;919160;-63
2022/01/09 00:07:16;;;;;;;33.37;20.87;;;;;;;;;;781641;177;918991;-67
2022/01/09 00:09:44;;;;;;;35.07;20.33;;;;;;;;;;766900;181;918959;-64
2022/01/09 00:12:08;;;;;;;29.03;17.50;;;;;;;;;;785663;176;919235;-63
2022/01/09 00:14:34;;;;;;;32.63;17.77;;;;;;;;;;778603;176;919675;-63
2022/01/09 00:17:00;;;;;;;30.90;17.20;;;;;;;;;;782017;176;919315;-63
2022/01/09 00:19:25;;;;;;;29.47;18.13;;;;;;;;;;781779;177;918303;-63
2022/01/09 00:21:51;;;;;;;26.17;16.87;;;;;;;;;;779096;176;921385;-63
2022/01/09 00:24:17;;;;;;;29.40;17.00;;;;;;;;;;790824;175;919485;-64
2022/01/09 00:26:43;;;;;;;29.60;18.47;;;;;;;;;;772692;180;1020609;-63
2022/01/09 00:29:10;;;;;;;26.83;18.63;;;;;;;;;;765378;179;915373;-63
2022/01/09 00:31:35;;;;;;;27.17;16.50;;;;;;;;;;779860;176;916596;-63
2022/01/09 00:34:00;;;;;;;29.07;16.67;;;;;;;;;;779621;176;920207;-63
2022/01/09 00:36:26;;;;;;;33.10;17.58;;;;;;;;;;773339;180;919723;-63
2022/01/09 00:38:52;;;;;;;32.00;18.40;;;;;;;;;;775213;176;920091;-63
2022/01/09 00:41:18;;;;;;;44.67;21.83;;;;;;;;;;781863;176;918832;-63
2022/01/09 00:43:44;;;;;;;38.60;22.67;;;;;;;;;;785057;176;919005;-63
2022/01/09 00:46:10;;;;;;;43.50;23.97;;;;;;;;;;783151;177;918951;-63
2022/01/09 00:48:35;;;;;;;42.83;25.00;;;;;;;;;;784474;176;918552;-63
2022/01/09 00:51:01;;;;;;;45.17;27.80;;;;;;;;;;786302;177;926005;-63
2022/01/09 00:53:27;;;;;;;41.97;26.30;;;;;;;;;;780378;177;917789;-63
2022/01/09 00:55:53;;;;;;;45.13;26.43;;;;;;;;;;788645;177;919482;-63
2022/01/09 00:58:19;;;;;;;41.70;23.50;;;;;;;;;;784667;177;918741;-62
2022/01/09 01:00:45;;;;;;;37.43;22.20;;;;;;;;;;787784;176;919003;-63
2022/01/09 01:03:11;;;;;;;41.67;25.25;;;;;;;;;;781588;177;925786;-63
2022/01/09 01:05:37;;;;;;;43.95;24.45;;;;;;;;;;780265;177;916437;-64
2022/01/09 01:08:03;;;;;;;35.00;20.70;;;;;;;;;;785554;176;920120;-63
2022/01/09 01:10:29;;;;;;;44.43;22.77;;;;;;;;;;784847;176;915193;-61
2022/01/09 01:12:55;;;;;;;44.20;24.35;;;;;;;;;;777772;176;919280;-63
2022/01/09 01:15:20;;;;;;;40.97;22.87;;;;;;;;;;774472;181;916069;-62
2022/01/09 01:17:46;;;;;;;39.80;22.20;;;;;;;;;;783161;177;912226;-62
2022/01/09 01:20:12;;;;;;;35.17;20.40;;;;;;;;;;780186;177;911514;-62
2022/01/09 01:22:38;;;;;;;30.93;17.13;;;;;;;;;;784637;176;955307;-62
2022/01/09 01:25:05;;;;;;;29.73;18.33;;;;;;;;;;778663;177;914839;-62
2022/01/09 01:27:30;;;;;;;26.93;18.20;;;;;;;;;;776601;177;1022698;-62
2022/01/09 01:29:56;;;;;;;54.43;30.90;;;;;;;;;;781510;177;919776;-62
2022/01/09 01:32:22;;;;;;;45.97;27.90;;;;;;;;;;784467;177;920388;-62
2022/01/09 01:34:48;;;;;;;44.73;23.23;;;;;;;;;;783909;176;919281;-61
2022/01/09 01:37:14;;;;;;;45.80;20.10;;;;;;;;;;780698;176;920498;-62
2022/01/09 01:39:39;;;;;;;33.63;18.63;;;;;;;;;;793422;176;919784;-61
2022/01/09 01:42:06;;;;;;;30.50;19.70;;;;;;;;;;781816;177;918879;-61
2022/01/09 01:44:37;;;;;;;35.60;18.40;;;;;;;;;;774708;177;917543;-63
2022/01/09 01:47:03;;;;;;;41.47;22.37;;;;;;;;;;767743;178;919481;-62
2022/01/09 01:49:31;;;;;;;38.17;20.33;;;;;;;;;;774861;179;919903;-62
2022/01/09 01:51:55;;;;;;;31.53;19.37;;;;;;;;;;770999;179;920119;-62
2022/01/09 01:54:22;;;;;;;31.17;18.73;;;;;;;;;;766077;181;919221;-62
2022/01/09 01:56:47;;;;;;;34.73;18.40;;;;;;;;;;767529;180;918289;-64
2022/01/09 01:59:13;;;;;;;33.33;20.47;;;;;;;;;;757787;183;918378;-62
2022/01/09 02:01:39;;;;;;;33.20;18.67;;;;;;;;;;747775;184;919065;-62
2022/01/09 02:04:05;;;;;;;34.50;18.37;;;;;;;;;;786030;176;919374;-62
2022/01/09 02:06:31;;;;;;;32.50;18.30;;;;;;;;;;772632;176;944400;-62
2022/01/09 02:08:57;;;;;;;26.83;17.00;;;;;;;;;;780654;176;919271;-62
2022/01/09 02:11:23;;;;;;;30.50;16.93;;;;;;;;;;779273;176;919333;-62
2022/01/09 02:13:49;;;;;;;24.83;16.30;;;;;;;;;;785261;176;917883;-62
2022/01/09 02:16:17;;;;;;;27.67;17.67;;;;;;;;;;779567;177;918968;-62
2022/01/09 02:18:43;;;;;;;24.43;16.37;;;;;;;;;;782662;177;918727;-62
2022/01/09 02:21:10;;;;;;;25.70;15.50;;;;;;;;;;786084;177;919052;-62
2022/01/09 02:23:36;;;;;;;24.80;15.67;;;;;;;;;;780181;176;917566;-62
2022/01/09 02:26:00;;;;;;;25.97;16.53;;;;;;;;;;778336;177;919096;-62
2022/01/09 02:28:26;;;;;;;30.23;16.80;;;;;;;;;;789678;176;919140;-62
2022/01/09 02:30:52;;;;;;;25.77;16.37;;;;;;;;;;784687;177;919567;-62
2022/01/09 02:33:17;;;;;;;35.07;17.17;;;;;;;;;;780648;176;918384;-62
2022/01/09 02:35:43;;;;;;;26.93;16.93;;;;;;;;;;781391;177;920836;-62
2022/01/09 02:38:09;;;;;;;27.70;16.57;;;;;;;;;;787797;176;918635;-62
2022/01/09 02:40:35;;;;;;;28.70;16.07;;;;;;;;;;778783;177;918354;-62
2022/01/09 02:43:01;;;;;;;29.65;17.10;;;;;;;;;;779620;177;919300;-62
2022/01/09 02:45:27;;;;;;;39.03;16.00;;;;;;;;;;786150;177;919246;-63
2022/01/09 02:47:53;;;;;;;34.07;18.33;;;;;;;;;;779079;177;905714;-62
2022/01/09 02:50:38;;;;;;;34.90;18.50;;;;;;;;;;776730;180;919090;-62
2022/01/09 02:53:12;;;;;;;32.53;19.13;;;;;;;;;;778562;177;919047;-64
2022/01/09 02:55:26;;;;;;;30.30;17.10;;;;;;;;;;783210;177;919070;-63
2022/01/09 02:57:51;;;;;;;28.03;16.43;;;;;;;;;;778836;176;918395;-63
2022/01/09 03:00:17;;;;;;;27.90;16.75;;;;;;;;;;780218;174;919095;-63
2022/01/09 03:02:43;;;;;;;23.83;13.90;;;;;;;;;;780364;176;919200;-60
2022/01/09 03:05:09;;;;;;;29.92;16.70;;;;;;;;;;783961;176;920034;-63
2022/01/09 03:07:35;;;;;;;23.67;15.10;;;;;;;;;;783537;176;920139;-63
2022/01/09 03:10:01;;;;;;;25.53;14.80;;;;;;;;;;781662;176;919702;-62
2022/01/09 03:12:27;;;;;;;23.33;14.73;;;;;;;;;;786482;177;918319;-63
2022/01/09 03:14:52;;;;;;;26.53;15.30;;;;;;;;;;781993;176;919400;-63
2022/01/09 03:17:18;;;;;;;25.70;14.63;;;;;;;;;;781488;177;918741;-63
2022/01/09 03:19:44;;;;;;;26.23;14.93;;;;;;;;;;782400;176;944973;-63
2022/01/09 03:22:10;;;;;;;26.70;16.47;;;;;;;;;;772811;179;918309;-64
2022/01/09 03:24:36;;;;;;;26.43;14.47;;;;;;;;;;786068;176;920558;-64
2022/01/09 03:27:02;;;;;;;28.73;14.40;;;;;;;;;;775645;180;917025;-63
2022/01/09 03:29:27;;;;;;;21.67;14.07;;;;;;;;;;773475;176;919182;-63
2022/01/09 03:31:53;;;;;;;28.10;15.67;;;;;;;;;;773108;177;919172;-64
2022/01/09 03:34:19;;;;;;;23.03;13.90;;;;;;;;;;786885;173;920916;-64
2022/01/09 03:36:45;;;;;;;22.90;14.03;;;;;;;;;;771221;180;918903;-65
2022/01/09 03:39:11;;;;;;;17.67;12.67;;;;;;;;;;748940;184;921745;-64
2022/01/09 03:41:37;;;;;;;24.30;14.18;;;;;;;;;;749447;184;920290;-63
2022/01/09 03:44:03;;;;;;;23.07;13.60;;;;;;;;;;767642;181;920103;-63
2022/01/09 03:46:28;;;;;;;20.63;13.93;;;;;;;;;;778358;176;919055;-63
2022/01/09 03:48:54;;;;;;;22.13;12.80;;;;;;;;;;779582;177;920768;-65
2022/01/09 03:51:24;;;;;;;21.30;13.57;;;;;;;;;;787958;176;918284;-63
2022/01/09 03:53:46;;;;;;;25.58;14.75;;;;;;;;;;780721;177;919395;-64
2022/01/09 03:56:12;;;;;;;25.70;15.53;;;;;;;;;;782477;177;918090;-63
2022/01/09 03:58:38;;;;;;;20.27;12.60;;;;;;;;;;790568;176;919184;-63
2022/01/09 04:01:06;;;;;;;30.55;14.25;;;;;;;;;;789276;176;918956;-63
2022/01/09 04:03:29;;;;;;;25.00;15.60;;;;;;;;;;779263;177;918613;-64
2022/01/09 04:06:00;;;;;;;20.83;12.93;;;;;;;;;;778225;177;918863;-64
2022/01/09 04:08:21;;;;;;;27.37;15.80;;;;;;;;;;794197;177;919818;-63
2022/01/09 04:10:50;;;;;;;24.43;12.60;;;;;;;;;;791305;176;919249;-63
2022/01/09 04:13:13;;;;;;;22.80;13.63;;;;;;;;;;780648;176;913827;-64
2022/01/09 04:15:45;;;;;;;22.50;14.18;;;;;;;;;;786839;176;920523;-64
2022/01/09 04:18:04;;;;;;;26.20;14.90;;;;;;;;;;781944;176;1019368;-63
2022/01/09 04:20:30;;;;;;;20.73;12.80;;;;;;;;;;780814;177;1021424;-64
2022/01/09 04:22:56;;;;;;;22.83;14.65;;;;;;;;;;789513;176;914988;-63
2022/01/09 04:25:22;;;;;;;24.57;14.30;;;;;;;;;;785357;176;1081110;-64
2022/01/09 04:27:48;;;;;;;20.50;13.07;;;;;;;;;;788516;176;919238;-65
2022/01/09 04:30:14;;;;;;;21.60;13.00;;;;;;;;;;781567;176;919362;-64
2022/01/09 04:32:40;;;;;;;30.73;17.53;;;;;;;;;;771983;179;919265;-64
2022/01/09 04:35:06;;;;;;;20.70;13.73;;;;;;;;;;754539;183;919140;-65
2022/01/09 04:37:33;;;;;;;18.47;13.10;;;;;;;;;;779358;177;919698;-64
2022/01/09 04:39:58;;;;;;;30.87;16.17;;;;;;;;;;787436;177;905792;-64
2022/01/09 04:42:30;;;;;;;22.60;14.07;;;;;;;;;;781293;177;919445;-65
2022/01/09 04:44:49;;;;;;;23.30;13.87;;;;;;;;;;778871;177;919917;-65
2022/01/09 04:47:17;;;;;;;21.20;13.07;;;;;;;;;;772769;181;919280;-64
2022/01/09 04:49:44;;;;;;;24.40;13.70;;;;;;;;;;783162;176;920788;-65
2022/01/09 04:52:11;;;;;;;23.92;14.02;;;;;;;;;;781380;177;920455;-64
2022/01/09 04:54:33;;;;;;;27.00;14.70;;;;;;;;;;779872;177;919853;-64
2022/01/09 04:57:01;;;;;;;21.63;13.73;;;;;;;;;;785769;177;917435;-65
2022/01/09 04:59:25;;;;;;;27.90;17.40;;;;;;;;;;776462;177;920942;-64
2022/01/09 05:01:51;;;;;;;29.63;15.00;;;;;;;;;;780330;176;960350;-66
2022/01/09 05:04:17;;;;;;;29.20;16.77;;;;;;;;;;785088;177;918622;-65
2022/01/09 05:06:42;;;;;;;25.77;15.90;;;;;;;;;;779742;176;919239;-65
2022/01/09 05:09:10;;;;;;;32.77;17.00;;;;;;;;;;780756;177;915551;-64
2022/01/09 05:11:34;;;;;;;28.73;17.20;;;;;;;;;;787613;176;916002;-64
2022/01/09 05:14:00;;;;;;;25.83;15.27;;;;;;;;;;781464;177;916070;-64
2022/01/09 05:16:26;;;;;;;33.20;16.80;;;;;;;;;;766768;181;918744;-65
2022/01/09 05:18:55;;;;;;;35.27;19.40;;;;;;;;;;784325;176;918761;-65
2022/01/09 05:21:18;;;;;;;27.47;17.17;;;;;;;;;;783541;177;918796;-64
2022/01/09 05:23:44;;;;;;;31.58;18.40;;;;;;;;;;779960;176;920698;-64
2022/01/09 05:26:10;;;;;;;39.97;18.33;;;;;;;;;;790310;173;881120;-65
2022/01/09 05:28:35;;;;;;;31.57;16.13;;;;;;;;;;795729;175;918985;-64
2022/01/09 05:31:01;;;;;;;25.17;15.13;;;;;;;;;;782888;176;916678;-64
2022/01/09 05:33:27;;;;;;;28.07;17.30;;;;;;;;;;784080;177;915305;-64
2022/01/09 05:35:53;;;;;;;31.60;16.75;;;;;;;;;;768274;180;915061;-65
2022/01/09 05:38:20;;;;;;;24.67;14.53;;;;;;;;;;792300;176;918975;-63
2022/01/09 05:40:45;;;;;;;32.03;15.93;;;;;;;;;;784633;176;919122;-65
2022/01/09 05:43:11;;;;;;;26.80;17.10;;;;;;;;;;779153;180;918741;-64
2022/01/09 05:45:36;;;;;;;30.23;15.20;;;;;;;;;;776670;180;920293;-65
2022/01/09 05:48:02;;;;;;;29.80;17.52;;;;;;;;;;785731;176;918626;-64
2022/01/09 05:50:28;;;;;;;32.63;19.77;;;;;;;;;;782629;176;918791;-64
2022/01/09 05:52:54;;;;;;;39.80;22.10;;;;;;;;;;782809;177;918678;-65
2022/01/09 05:55:20;;;;;;;35.30;20.47;;;;;;;;;;778878;177;920892;-65
2022/01/09 05:57:46;;;;;;;41.73;21.80;;;;;;;;;;775658;177;918800;-65
2022/01/09 06:00:12;;;;;;;54.13;28.57;;;;;;;;;;788381;176;918688;-65
2022/01/09 06:02:38;;;;;;;46.63;24.98;;;;;;;;;;783047;177;918505;-65
2022/01/09 06:05:04;;;;;;;46.10;25.80;;;;;;;;;;780314;177;920087;-64
2022/01/09 06:07:30;;;;;;;48.05;27.77;;;;;;;;;;778188;177;919201;-63
2022/01/09 06:09:56;;;;;;;67.50;35.63;;;;;;;;;;778598;177;918855;-64
2022/01/09 06:12:22;;;;;;;48.97;26.23;;;;;;;;;;760261;182;918886;-65
2022/01/09 06:14:48;;;;;;;38.60;23.85;;;;;;;;;;757960;182;918779;-65
2022/01/09 06:17:13;;;;;;;53.60;28.70;;;;;;;;;;771925;180;919170;-65
2022/01/09 06:19:39;;;;;;;38.27;21.83;;;;;;;;;;776323;176;922297;-65
2022/01/09 06:22:06;;;;;;;46.33;24.00;;;;;;;;;;782434;176;918864;-64
2022/01/09 06:24:31;;;;;;;60.87;29.70;;;;;;;;;;786613;176;918939;-63
2022/01/09 06:26:57;;;;;;;60.37;33.87;;;;;;;;;;768916;177;918919;-65
2022/01/09 06:29:23;;;;;;;53.45;27.45;;;;;;;;;;778583;177;918616;-64
2022/01/09 06:31:49;;;;;;;47.07;29.60;;;;;;;;;;787366;177;918298;-65
2022/01/09 06:34:16;;;;;;;67.10;37.03;;;;;;;;;;783932;176;919114;-64
2022/01/09 06:36:42;;;;;;;121.50;58.07;;;;;;;;;;781899;176;919337;-65
2022/01/09 06:39:07;;;;;;;66.73;36.53;;;;;;;;;;778562;176;1021139;-65
2022/01/09 06:41:33;;;;;;;95.53;49.77;;;;;;;;;;788004;176;926584;-64
2022/01/09 06:43:59;;;;;;;83.70;45.07;;;;;;;;;;779697;176;918898;-66
2022/01/09 06:46:26;;;;;;;59.87;29.23;;;;;;;;;;779666;176;966700;-65
2022/01/09 06:48:51;;;;;;;49.38;27.60;;;;;;;;;;788492;177;919566;-64
2022/01/09 06:51:17;;;;;;;43.07;25.90;;;;;;;;;;781028;177;1121911;-64
2022/01/09 06:53:42;;;;;;;45.60;24.33;;;;;;;;;;778649;177;1018298;-64
2022/01/09 06:56:08;;;;;;;46.97;28.63;;;;;;;;;;783987;177;917935;-66
2022/01/09 06:58:36;;;;;;;51.37;31.57;;;;;;;;;;779088;176;919210;-63
2022/01/09 07:01:00;;;;;;;48.30;28.40;;;;;;;;;;788539;176;918799;-64
2022/01/09 07:03:26;;;;;;;41.27;23.93;;;;;;;;;;789363;176;918956;-64
2022/01/09 07:05:52;;;;;;;51.30;28.70;;;;;;;;;;770426;180;918835;-63
2022/01/09 07:08:18;;;;;;;49.03;28.20;;;;;;;;;;758482;184;918541;-64
2022/01/09 07:10:43;;;;;;;43.63;25.77;;;;;;;;;;766926;179;919315;-65
2022/01/09 07:13:09;;;;;;;50.50;26.50;;;;;;;;;;791065;177;919033;-65
2022/01/09 07:15:35;;;;;;;45.03;26.60;;;;;;;;;;784862;176;917985;-65
2022/01/09 07:18:01;;;;;;;50.10;28.43;;;;;;;;;;777389;177;918738;-66
2022/01/09 07:20:27;;;;;;;46.40;25.77;;;;;;;;;;781919;176;919223;-64
2022/01/09 07:22:53;;;;;;;52.20;30.63;;;;;;;;;;781147;177;918599;-64
2022/01/09 07:25:18;;;;;;;51.40;28.08;;;;;;;;;;776824;177;918981;-64
2022/01/09 07:27:44;;;;;;;52.47;28.60;;;;;;;;;;780026;176;919649;-64
2022/01/09 07:30:10;;;;;;;48.97;27.17;;;;;;;;;;787186;176;918497;-65
2022/01/09 07:32:37;;;;;;;46.83;28.80;;;;;;;;;;784946;176;920036;-63
2022/01/09 07:35:02;;;;;;;61.57;32.40;;;;;;;;;;779371;176;1042189;-64
2022/01/09 07:37:30;;;;;;;49.23;27.43;;;;;;;;;;767298;181;917990;-65
2022/01/09 07:39:54;;;;;;;56.40;29.17;;;;;;;;;;780397;177;918840;-65
2022/01/09 07:42:19;;;;;;;54.30;28.77;;;;;;;;;;779323;176;918989;-64
2022/01/09 07:44:45;;;;;;;52.42;29.70;;;;;;;;;;784684;177;919037;-63
2022/01/09 07:47:11;;;;;;;52.90;30.40;;;;;;;;;;783662;176;919445;-65
2022/01/09 07:49:37;;;;;;;62.37;31.70;;;;;;;;;;786708;176;615702;-63
2022/01/09 07:52:03;;;;;;;63.53;34.47;;;;;;;;;;784408;176;635939;-64
2022/01/09 07:54:29;;;;;;;61.43;34.97;;;;;;;;;;787149;176;657402;-65
2022/01/09 07:56:55;;;;;;;68.90;35.63;;;;;;;;;;792997;176;916074;-63
2022/01/09 07:59:21;;;;;;;95.47;46.72;;;;;;;;;;790141;175;958506;-63
2022/01/09 08:01:46;;;;;;;79.57;41.30;;;;;;;;;;770250;180;918552;-62
2022/01/09 08:04:12;;;;;;;203.77;74.70;;;;;;;;;;781356;177;917944;-64
2022/01/09 08:06:39;;;;;;;352.23;131.30;;;;;;;;;;780103;177;917347;-62
2022/01/09 08:09:04;;;;;;;254.07;100.47;;;;;;;;;;776161;178;945210;-64
2022/01/09 08:11:30;;;;;;;126.77;58.27;;;;;;;;;;785647;175;919198;-63
2022/01/09 08:13:56;;;;;;;133.87;61.33;;;;;;;;;;769794;177;920373;-64
2022/01/09 08:16:22;;;;;;;201.63;92.53;;;;;;;;;;787007;177;918703;-64
2022/01/09 08:18:48;;;;;;;172.47;82.70;;;;;;;;;;781574;177;918140;-62
2022/01/09 08:21:19;;;;;;;301.03;149.50;;;;;;;;;;789792;176;639830;-63
2022/01/09 08:23:39;;;;;;;181.90;87.43;;;;;;;;;;785559;177;918949;-62
2022/01/09 08:26:05;;;;;;;197.43;95.73;;;;;;;;;;771750;183;625458;-63
2022/01/09 08:28:31;;;;;;;151.73;82.57;;;;;;;;;;783262;177;624841;-63
2022/01/09 08:30:57;;;;;;;116.90;65.33;;;;;;;;;;783032;177;615011;-63
2022/01/09 08:33:25;;;;;;;109.00;55.50;;;;;;;;;;791884;176;630737;-62
2022/01/09 08:35:49;;;;;;;91.77;49.10;;;;;;;;;;794494;176;634478;-63
2022/01/09 08:38:15;;;;;;;102.10;56.00;;;;;;;;;;780040;176;631055;-63
2022/01/09 08:40:40;;;;;;;95.68;55.22;;;;;;;;;;788213;176;916944;-62
2022/01/09 08:43:06;;;;;;;87.27;42.80;;;;;;;;;;779136;177;937464;-63
2022/01/09 08:45:32;;;;;;;84.53;47.77;;;;;;;;;;780053;177;918847;-61
2022/01/09 08:47:58;;;;;;;119.87;52.87;;;;;;;;;;777053;179;918497;-62
2022/01/09 08:50:24;;;;;;;91.37;52.27;;;;;;;;;;790043;176;919085;-62
2022/01/09 08:52:50;;;;;;;64.90;39.87;;;;;;;;;;779761;176;919261;-63
2022/01/09 08:55:16;;;;;;;75.43;41.20;;;;;;;;;;780437;177;920240;-62
2022/01/09 08:57:41;;;;;;;55.33;33.13;;;;;;;;;;780907;179;919105;-63
2022/01/09 09:00:08;;;;;;;80.55;41.80;;;;;;;;;;775864;176;919803;-62
2022/01/09 09:02:34;;;;;;;93.70;47.60;;;;;;;;;;786239;176;919361;-61
2022/01/09 09:04:59;;;;;;;72.13;40.80;;;;;;;;;;788954;177;918040;-62
2022/01/09 09:07:25;;;;;;;67.27;35.63;;;;;;;;;;785795;177;918409;-62
2022/01/09 09:09:51;;;;;;;86.60;44.47;;;;;;;;;;784206;177;919642;-61
2022/01/09 09:12:17;;;;;;;68.50;36.88;;;;;;;;;;783467;177;919319;-60
2022/01/09 09:14:43;;;;;;;20.80;10.37;;;;;;;;;;785755;176;919251;-61
2022/01/09 09:17:09;;;;;;;12.73;9.40;;;;;;;;;;781306;177;918288;-61
2022/01/09 09:19:35;;;;;;;11.60;8.27;;;;;;;;;;786394;176;919875;-62
2022/01/09 09:22:01;;;;;;;13.93;7.93;;;;;;;;;;783878;176;919302;-63
2022/01/09 09:24:27;;;;;;;14.13;9.87;;;;;;;;;;790237;176;915496;-61
2022/01/09 09:26:52;;;;;;;14.67;7.50;;;;;;;;;;779492;176;925485;-63
2022/01/09 09:29:19;;;;;;;13.00;8.20;;;;;;;;;;781611;176;918934;-64
2022/01/09 09:31:44;;;;;;;9.27;6.20;;;;;;;;;;784619;176;920255;-64
2022/01/09 09:34:10;;;;;;;17.27;9.13;;;;;;;;;;791129;175;924553;-63
2022/01/09 09:36:36;;;;;;;7.80;4.93;;;;;;;;;;784084;177;920509;-64
2022/01/09 09:39:02;;;;;;;9.27;5.67;;;;;;;;;;786892;175;919164;-64
2022/01/09 09:41:28;;;;;;;14.77;5.63;;;;;;;;;;790438;173;918516;-66
2022/01/09 09:43:54;;;;;;;7.43;4.83;;;;;;;;;;778681;177;916403;-66
2022/01/09 09:46:20;;;;;;;7.40;4.80;;;;;;;;;;787241;176;892096;-66
2022/01/09 09:48:46;;;;;;;13.88;5.15;;;;;;;;;;774321;178;927469;-66
2022/01/09 09:51:12;;;;;;;10.67;6.40;;;;;;;;;;781033;176;911388;-67
2022/01/09 09:53:37;;;;;;;14.33;6.00;;;;;;;;;;785518;177;915705;-67
2022/01/09 09:56:03;;;;;;;13.47;5.33;;;;;;;;;;777990;177;918981;-67
2022/01/09 09:58:29;;;;;;;9.80;5.43;;;;;;;;;;777198;177;918165;-67
2022/01/09 10:00:55;;;;;;;10.70;5.73;;;;;;;;;;787811;177;918759;-67
2022/01/09 10:03:29;;;;;;;10.50;6.45;;;;;;;;;;780395;176;918652;-69
2022/01/09 10:05:55;;;;;;;12.50;7.03;;;;;;;;;;779573;177;919008;-68
2022/01/09 10:08:21;;;;;;;8.40;5.33;;;;;;;;;;768583;179;934945;-68
2022/01/09 10:10:46;;;;;;;8.43;6.37;;;;;;;;;;774569;179;918454;-68
2022/01/09 10:13:13;;;;;;;9.37;5.80;;;;;;;;;;768146;179;918998;-69
2022/01/09 10:15:43;;;;;;;9.27;5.93;;;;;;;;;;765665;180;919466;-69
2022/01/09 10:18:08;;;;;;;14.00;6.00;;;;;;;;;;779310;176;919194;-69
2022/01/09 10:20:34;;;;;;;8.60;5.70;;;;;;;;;;800220;175;918808;-70
2022/01/09 10:23:00;;;;;;;9.80;5.30;;;;;;;;;;787065;176;919009;-69
2022/01/09 10:25:36;;;;;;;13.90;6.30;;;;;;;;;;780802;177;914448;-70
2022/01/09 10:28:03;;;;;;;14.00;7.00;;;;;;;;;;780985;177;918248;-70
2022/01/09 10:30:30;;;;;;;12.57;5.80;;;;;;;;;;782143;176;919207;-69
2022/01/09 10:32:55;;;;;;;10.20;5.73;;;;;;;;;;782620;176;918770;-70
2022/01/09 10:35:21;;;;;;;13.63;6.93;;;;;;;;;;783443;176;1013612;-71
2022/01/09 10:37:47;;;;;;;12.50;6.60;;;;;;;;;;789283;176;921396;-70
2022/01/09 10:40:17;;;;;;;17.13;6.37;;;;;;;;;;784261;177;919297;-70
2022/01/09 10:42:43;;;;;;;13.60;6.90;;;;;;;;;;777818;177;933509;-70
2022/01/09 10:45:14;;;;;;;17.33;7.57;;;;;;;;;;780643;177;919249;-70
2022/01/09 10:47:40;;;;;;;11.40;6.57;;;;;;;;;;762304;184;918637;-70
2022/01/09 10:50:07;;;;;;;11.20;6.73;;;;;;;;;;780215;179;919143;-70
2022/01/09 10:52:38;;;;;;;9.20;5.83;;;;;;;;;;782189;177;919480;-70
2022/01/09 10:54:58;;;;;;;9.37;5.10;;;;;;;;;;790848;177;918766;-69
2022/01/09 10:57:24;;;;;;;9.40;5.80;;;;;;;;;;777191;177;919217;-70
2022/01/09 10:59:50;;;;;;;9.53;6.50;;;;;;;;;;786915;176;928818;-69
2022/01/09 11:02:16;;;;;;;12.20;7.07;;;;;;;;;;779046;176;919942;-67
2022/01/09 11:04:42;;;;;;;12.87;6.00;;;;;;;;;;785640;177;918915;-69
2022/01/09 11:07:07;;;;;;;8.83;5.37;;;;;;;;;;778297;177;919384;-69
2022/01/09 11:09:33;;;;;;;12.07;6.45;;;;;;;;;;778790;177;930697;-69
2022/01/09 11:12:01;;;;;;;11.43;6.17;;;;;;;;;;784084;177;919855;-69
2022/01/09 11:14:27;;;;;;;9.90;5.50;;;;;;;;;;781945;177;918301;-69
2022/01/09 11:16:53;;;;;;;9.60;7.43;;;;;;;;;;778053;178;918069;-71
2022/01/09 11:19:17;;;;;;;12.10;6.27;;;;;;;;;;786308;177;917724;-69
2022/01/09 11:21:43;;;;;;;10.50;5.63;;;;;;;;;;783285;176;917927;-69
2022/01/09 11:24:26;;;;;;;9.03;6.07;;;;;;;;;;782219;176;1019639;-69
2022/01/09 11:27:02;;;;;;;10.13;5.13;;;;;;;;;;776100;176;988687;-69
2022/01/09 11:29:30;;;;;;;12.03;5.37;;;;;;;;;;780878;176;919627;-69
2022/01/09 11:32:02;;;;;;;10.03;6.03;;;;;;;;;;783086;176;918839;-70
2022/01/09 11:34:31;;;;;;;11.33;6.17;;;;;;;;;;785050;177;918999;-70
2022/01/09 11:37:10;;;;;;;11.47;7.20;;;;;;;;;;776191;179;921581;-70
2022/01/09 11:39:36;;;;;;;8.00;4.90;;;;;;;;;;789453;176;626150;-69
2022/01/09 11:42:04;;;;;;;14.50;5.90;;;;;;;;;;786613;176;655216;-69
2022/01/09 11:44:30;;;;;;;8.80;5.50;;;;;;;;;;790423;177;625388;-70
2022/01/09 11:46:58;;;;;;;11.10;5.60;;;;;;;;;;781508;177;914982;-69
2022/01/09 11:49:23;;;;;;;10.40;6.03;;;;;;;;;;784331;176;641955;-69
2022/01/09 11:51:50;;;;;;;8.70;5.60;;;;;;;;;;784751;176;896533;-68
2022/01/09 11:54:17;;;;;;;8.20;4.97;;;;;;;;;;766082;182;919231;-69
2022/01/09 11:56:58;;;;;;;9.00;4.47;;;;;;;;;;755133;184;632926;-69
2022/01/09 11:59:38;;;;;;;7.57;4.27;;;;;;;;;;766447;180;620591;-68
2022/01/09 12:02:04;;;;;;;10.07;4.93;;;;;;;;;;766719;180;629413;-69
2022/01/09 12:04:46;;;;;;;7.63;4.30;;;;;;;;;;787486;176;622042;-66
2022/01/09 12:07:15;;;;;;;9.10;4.93;;;;;;;;;;770382;177;917052;-68
2022/01/09 12:09:50;;;;;;;7.20;4.43;;;;;;;;;;785641;176;947030;-68
2022/01/09 12:12:15;;;;;;;10.23;4.30;;;;;;;;;;780582;176;1001804;-68
2022/01/09 12:14:54;;;;;;;10.57;5.40;;;;;;;;;;780292;177;1121170;-67
2022/01/09 12:17:26;;;;;;;5.70;3.50;;;;;;;;;;779804;177;911982;-67
2022/01/09 12:20:14;;;;;;;5.10;2.90;;;;;;;;;;775481;177;919004;-67
2022/01/09 12:22:49;;;;;;;6.07;3.33;;;;;;;;;;778889;176;1020962;-67
2022/01/09 12:25:21;;;;;;;10.33;4.63;;;;;;;;;;777303;177;918740;-66
2022/01/09 12:27:48;;;;;;;5.00;2.57;;;;;;;;;;791943;176;918505;-67
2022/01/09 12:30:18;;;;;;;4.30;3.10;;;;;;;;;;778272;177;915649;-66
2022/01/09 12:32:44;;;;;;;6.03;3.13;;;;;;;;;;779575;177;919039;-67
2022/01/09 12:35:11;;;;;;;7.73;4.47;;;;;;;;;;780629;177;915132;-66
2022/01/09 12:37:37;;;;;;;9.03;5.40;;;;;;;;;;773908;179;915146;-64
2022/01/09 12:40:03;;;;;;;7.70;5.00;;;;;;;;;;761830;181;915902;-65
2022/01/09 12:42:29;;;;;;;13.80;6.20;;;;;;;;;;752843;185;882682;-67
2022/01/09 12:44:54;;;;;;;9.33;3.60;;;;;;;;;;787399;178;919800;-67
2022/01/09 12:47:20;;;;;;;8.23;3.93;;;;;;;;;;779417;176;918883;-65
2022/01/09 12:49:46;;;;;;;7.33;4.40;;;;;;;;;;782410;176;920881;-66
2022/01/09 12:52:12;;;;;;;7.57;3.92;;;;;;;;;;786188;176;916605;-65
2022/01/09 12:54:38;;;;;;;8.00;4.63;;;;;;;;;;777276;177;1023118;-64
2022/01/09 12:57:04;;;;;;;9.40;5.57;;;;;;;;;;780158;176;918839;-66
2022/01/09 12:59:29;;;;;;;7.70;4.03;;;;;;;;;;777787;176;918590;-65
2022/01/09 13:01:58;;;;;;;10.20;5.47;;;;;;;;;;772267;180;1021276;-64
2022/01/09 13:04:22;;;;;;;8.47;5.60;;;;;;;;;;760552;181;919943;-66
2022/01/09 13:06:47;;;;;;;6.27;4.40;;;;;;;;;;749596;184;920146;-66
2022/01/09 13:09:13;;;;;;;10.63;5.80;;;;;;;;;;783721;176;919236;-65
2022/01/09 13:11:39;;;;;;;8.27;5.40;;;;;;;;;;779447;176;919091;-65
2022/01/09 13:14:07;;;;;;;6.70;4.22;;;;;;;;;;776552;177;957342;-65
2022/01/09 13:16:31;;;;;;;4.67;3.43;;;;;;;;;;777026;179;1020304;-66
2022/01/09 13:18:58;;;;;;;9.77;5.03;;;;;;;;;;782062;176;918793;-66
2022/01/09 13:21:23;;;;;;;11.30;5.60;;;;;;;;;;782427;177;915344;-67
2022/01/09 13:23:49;;;;;;;9.97;4.67;;;;;;;;;;777050;177;919138;-64
2022/01/09 13:26:15;;;;;;;8.90;5.40;;;;;;;;;;783154;177;919972;-65
2022/01/09 13:28:42;;;;;;;5.13;3.30;;;;;;;;;;779185;176;920376;-65
2022/01/09 13:31:07;;;;;;;11.03;4.90;;;;;;;;;;777683;177;918763;-65
2022/01/09 13:33:33;;;;;;;11.43;5.80;;;;;;;;;;784293;177;920812;-65
2022/01/09 13:35:59;;;;;;;11.63;5.40;;;;;;;;;;780023;177;919108;-66
2022/01/09 13:38:25;;;;;;;7.57;4.73;;;;;;;;;;779135;177;1026761;-65
2022/01/09 13:40:51;;;;;;;11.60;5.80;;;;;;;;;;774090;179;919475;-65
2022/01/09 13:43:17;;;;;;;10.60;5.40;;;;;;;;;;780380;176;919627;-65
2022/01/09 13:45:45;;;;;;;9.80;5.80;;;;;;;;;;774710;176;615079;-66
2022/01/09 13:48:08;;;;;;;18.10;7.27;;;;;;;;;;782071;175;915785;-65
2022/01/09 13:50:35;;;;;;;16.33;6.77;;;;;;;;;;776407;178;903997;-66
2022/01/09 13:53:07;;;;;;;13.77;7.83;;;;;;;;;;778777;176;919747;-65
2022/01/09 13:55:33;;;;;;;14.80;7.53;;;;;;;;;;782561;176;921698;-66
2022/01/09 13:58:03;;;;;;;13.57;7.10;;;;;;;;;;788487;176;624934;-66
2022/01/09 14:00:27;;;;;;;16.93;9.17;;;;;;;;;;780020;176;973607;-66
2022/01/09 14:02:54;;;;;;;16.00;7.95;;;;;;;;;;782797;176;919334;-66
2022/01/09 14:05:20;;;;;;;17.97;11.80;;;;;;;;;;781599;177;624633;-66